Garden City, GA

10:51 AM EST on February 10, 2016 (GMT -0500)
Savannah International | | Change Station
CLOSE
Current Station
Airport
Location: Savannah,
Elevation: 49 ft
Nearby Weather Stations
Active Advisory: Flood Warning, Special Statement

Elev 49 ft 32.13 °N, 81.20 °W | Updated 58 minutes ago

Clear
Clear
35 °F
Feels Like 24 °F
N
18
Wind Variable Wind from WNW
Gusts 26 mph

Today
High -- | Low -- °F
--% Chance of Precip.
Yesterday
High -- | Low -- °F
Precip. -- in
Pressure 30.12 in
Visibility 10.0 miles
Clouds Few 3300 ft
Windchill 24 °F
Dew Point 18 °F
Humidity 50%
Rainfall 0.00 in
Snow Depth Not available.
7:12 AM 6:06 PM
Waxing Crescent, 6% visible
METAR KSAV 101453Z 30016G23KT 10SM FEW033 02/M08 A3012 RMK AO2 SLP200 T00171078 51010
Pressure 30.12 in
Visibility 10.0 miles
Clouds Few 3300 ft
Windchill 24 °F
Dew Point 18 °F
Humidity 50%
Rainfall 0.00 in
Snow Depth Not available.
7:12 AM 6:06 PM
Waxing Crescent, 6% visible
METAR KSAV 101453Z 30016G23KT 10SM FEW033 02/M08 A3012 RMK AO2 SLP200 T00171078 51010

10-Day Weather Forecast

Almanac

Astronomy

Feb. 10, 2016 Rise Set
Actual Time
Civil Twilight
Nautical Twilight
Astronomical Twilight
Moon
Length of Visible Light
Length of Day
Tomorrow will be .
, % of the Moon is Illuminated

Today's Extremes

State Highs State Lows

Community

WunderPhotos

Upload Photos

1,891,863 photos uploaded!

WunderBlog® & News

Nearby

Air Quality

  Air Quality AQ Index Pollutant
Not available.

Snow Depth

Station Depth Elevation

Earthquake Activity

City Distance Mag. Time & Date
Minimum magnitude displayed is 2.5.

Coastal Water Temperatures

Place Temperature

Stations

Nearby Weather Stations

Station Location Temp. Windchill Dew Point Humidity Wind Precip. Elev Updated Type
                   

Watches & Warnings

Flood Warning
Issued: 9:39 AM EST Feb. 10, 2016 – National Weather Service

The Flood Warning continues for
the Ogeechee river near Eden.
* At 9 am Wednesday the stage was 13.0 feet.
* Flood stage is 11.0 feet.
* Minor flooding is occurring.
* Forecast, the river will remain nearly steady or slowly fall.
* At 12.0 feet, water encroaches on some homes along dashers Landing
Road and Yarbrough Landing Road. Davis Landing Road also becomes
impassable.


Lat... Lon 3246 8160 3252 8152 3227 8140 3208 8133
          3206 8143 3223 8150




Special Statement
Issued: 10:48 AM EST Feb. 10, 2016 – National Weather Service

... Breezy conditions through this afternoon...

West winds are expected to gust as high as around 35 mph through
this afternoon... with a few higher gusts possible... especially on
elevated roadways such as bridges and overpasses. This will make
driving high profile vehicles difficult and could lead to some
weak trees falling due to the wet soil across the area.

Precautionary/preparedness actions...

Be careful when driving high profile vehicles across bridges and
overpasses. Be alert for the possibility that some weak trees
could fall.